createdAt,value
2019-03-02T00:05:07.757Z,77.97
2019-03-02T00:07:36.675Z,77.97
2019-03-02T00:10:09.989Z,77.63
2019-03-02T00:12:39.485Z,77.78
2019-03-02T00:15:11.318Z,78.50
2019-03-02T00:17:40.293Z,78.16
2019-03-02T00:20:14.744Z,78.39
2019-03-02T00:22:44.969Z,77.71
2019-03-02T00:25:16.775Z,77.59
2019-03-02T00:27:45.392Z,78.52
2019-03-02T00:30:17.711Z,78.64
2019-03-02T00:32:49.981Z,79.14
2019-03-02T00:35:18.552Z,78.50
2019-03-02T00:37:47.080Z,78.39
2019-03-02T00:40:18.400Z,78.93
2019-03-02T00:42:51.970Z,79.58
2019-03-02T00:45:20.752Z,79.73
2019-03-02T00:47:49.365Z,80.10
2019-03-02T00:50:20.952Z,80.39
2019-03-02T00:52:49.576Z,79.23
2019-03-02T00:55:20.853Z,79.85
2019-03-02T00:57:50.726Z,80.18
2019-03-02T01:00:22.802Z,80.85
2019-03-02T01:02:51.718Z,80.17
2019-03-02T01:05:20.339Z,79.77
2019-03-02T01:07:52.044Z,80.26
2019-03-02T01:10:23.676Z,79.42
2019-03-02T01:12:55.835Z,80.00
2019-03-02T01:15:27.396Z,79.72
2019-03-02T01:17:56.000Z,80.52
2019-03-02T01:20:28.693Z,81.27
2019-03-02T01:23:01.021Z,82.05
2019-03-02T01:25:33.027Z,82.30
2019-03-02T01:28:06.653Z,80.34
2019-03-02T01:30:40.528Z,80.31
2019-03-02T01:33:15.426Z,80.03
2019-03-02T01:35:47.173Z,80.38
2019-03-02T01:38:19.542Z,80.81
2019-03-02T01:40:50.896Z,81.00
2019-03-02T01:43:22.261Z,80.90
2019-03-02T01:45:54.029Z,80.13
2019-03-02T01:48:26.634Z,80.38
2019-03-02T01:50:56.072Z,80.90
2019-03-02T01:53:24.949Z,80.88
2019-03-02T01:55:56.365Z,81.15
2019-03-02T01:58:28.067Z,81.40
2019-03-02T02:00:57.943Z,81.28
2019-03-02T02:03:26.491Z,82.71
2019-03-02T02:05:57.798Z,81.67
2019-03-02T02:08:29.809Z,81.49
2019-03-02T02:11:01.878Z,81.22
2019-03-02T02:13:33.475Z,81.71
2019-03-02T02:16:05.792Z,82.15
2019-03-02T02:18:39.801Z,82.45
2019-03-02T02:21:09.957Z,82.27
2019-03-02T02:23:41.440Z,81.45
2019-03-02T02:26:13.122Z,82.07
2019-03-02T02:28:41.736Z,81.31
2019-03-02T02:31:10.343Z,81.71
2019-03-02T02:33:43.250Z,81.64
2019-03-02T02:36:14.166Z,81.94
2019-03-02T02:38:43.914Z,82.93
2019-03-02T02:41:22.413Z,83.78
2019-03-02T02:43:48.364Z,82.71
2019-03-02T02:46:19.889Z,82.75
2019-03-02T02:48:48.601Z,83.30
2019-03-02T02:51:20.236Z,83.44
2019-03-02T02:53:48.782Z,82.74
2019-03-02T02:56:21.483Z,83.07
2019-03-02T02:58:55.619Z,83.04
2019-03-02T03:01:20.441Z,83.53
2019-03-02T03:03:48.997Z,84.37
2019-03-02T03:06:20.337Z,84.37
2019-03-02T03:08:48.958Z,84.63
2019-03-02T03:11:20.430Z,85.01
2019-03-02T03:13:51.760Z,83.97
2019-03-02T03:16:20.530Z,82.47
2019-03-02T03:18:53.590Z,83.62
2019-03-02T03:21:27.830Z,82.99
2019-03-02T03:24:03.274Z,84.16
2019-03-02T03:26:30.962Z,84.76
2019-03-02T03:29:05.235Z,84.26
2019-03-02T03:31:31.980Z,83.92
2019-03-02T03:34:03.430Z,83.69
2019-03-02T03:36:34.083Z,84.31
2019-03-02T03:39:06.754Z,84.71
2019-03-02T03:41:42.855Z,85.11
2019-03-02T03:44:07.049Z,84.66
2019-03-02T03:46:39.804Z,85.30
2019-03-02T03:49:11.337Z,85.04
2019-03-02T03:51:42.717Z,84.55
2019-03-02T03:54:11.328Z,85.42
2019-03-02T03:56:44.389Z,84.82
2019-03-02T03:59:14.186Z,84.47
2019-03-02T04:01:44.788Z,84.80
2019-03-02T04:04:16.618Z,84.05
2019-03-02T04:06:48.361Z,84.30
2019-03-02T04:09:17.198Z,85.28
2019-03-02T04:11:45.769Z,85.73
2019-03-02T04:14:19.186Z,85.65
2019-03-02T04:16:50.284Z,84.42
2019-03-02T04:19:24.922Z,84.67
2019-03-02T04:21:56.227Z,85.23
2019-03-02T04:24:27.625Z,85.30
2019-03-02T04:26:58.902Z,84.08
2019-03-02T04:29:27.474Z,84.50
2019-03-02T04:31:59.374Z,85.55
2019-03-02T04:34:30.679Z,86.42
2019-03-02T04:37:02.355Z,85.78
2019-03-02T04:39:30.976Z,86.07
2019-03-02T04:42:02.771Z,86.10
2019-03-02T04:44:34.450Z,85.69
2019-03-02T04:47:06.144Z,86.47
2019-03-02T04:49:34.758Z,86.83
2019-03-02T04:52:11.576Z,87.09
2019-03-02T04:54:39.469Z,86.60
2019-03-02T04:57:08.075Z,86.75
2019-03-02T04:59:39.467Z,86.87
2019-03-02T05:02:11.108Z,86.74
2019-03-02T05:04:42.523Z,86.54
2019-03-02T05:07:14.009Z,87.31
2019-03-02T05:09:42.642Z,87.02
2019-03-02T05:12:14.615Z,85.69
2019-03-02T05:14:43.891Z,85.12
2019-03-02T05:17:12.605Z,86.13
2019-03-02T05:19:41.217Z,86.48
2019-03-02T05:22:15.551Z,86.56
2019-03-02T05:24:45.642Z,87.28
2019-03-02T05:27:17.180Z,87.27
2019-03-02T05:29:50.693Z,87.09
2019-03-02T05:32:19.714Z,86.94
2019-03-02T05:34:48.348Z,87.08
2019-03-02T05:37:19.826Z,86.84
2019-03-02T05:39:52.862Z,86.27
2019-03-02T05:42:24.250Z,87.01
2019-03-02T05:44:55.946Z,86.46
2019-03-02T05:47:24.557Z,86.68
2019-03-02T05:49:54.663Z,86.64
2019-03-02T05:52:23.389Z,87.66
2019-03-02T05:54:52.026Z,87.31
2019-03-02T05:57:20.633Z,87.28
2019-03-02T05:59:52.157Z,87.59
2019-03-02T06:02:23.794Z,87.99
2019-03-02T06:04:53.666Z,87.60
2019-03-02T06:07:25.601Z,87.54
2019-03-02T06:09:57.005Z,87.64
2019-03-02T06:12:28.493Z,87.61
2019-03-02T06:14:57.098Z,87.99
2019-03-02T06:17:29.842Z,88.35
2019-03-02T06:20:02.064Z,87.44
2019-03-02T06:22:33.357Z,87.52
2019-03-02T06:25:01.987Z,88.18
2019-03-02T06:27:33.579Z,88.06
2019-03-02T06:30:04.839Z,88.37
2019-03-02T06:32:35.508Z,88.10
2019-03-02T06:35:04.694Z,88.27
2019-03-02T06:37:33.260Z,87.38
2019-03-02T06:40:09.850Z,87.73
2019-03-02T06:42:41.999Z,87.79
2019-03-02T06:45:20.044Z,87.35
2019-03-02T06:47:49.081Z,87.08
2019-03-02T06:50:21.401Z,87.39
2019-03-02T06:52:50.205Z,87.27
2019-03-02T06:55:20.798Z,87.80
2019-03-02T06:57:52.085Z,87.82
2019-03-02T07:00:21.917Z,87.34
2019-03-02T07:02:53.759Z,87.18
2019-03-02T07:05:22.367Z,87.18
2019-03-02T07:07:57.374Z,87.63
2019-03-02T07:10:26.937Z,87.61
2019-03-02T07:12:57.123Z,88.41
2019-03-02T07:15:28.652Z,87.62
2019-03-02T07:18:16.724Z,87.92
2019-03-02T07:20:46.683Z,87.93
2019-03-02T07:23:15.710Z,87.58
2019-03-02T07:25:44.405Z,87.87
2019-03-02T07:28:15.780Z,87.96
2019-03-02T07:30:44.362Z,87.85
2019-03-02T07:33:15.649Z,87.59
2019-03-02T07:35:44.623Z,87.41
2019-03-02T07:38:16.873Z,87.05
2019-03-02T07:40:49.823Z,87.05
2019-03-02T07:43:18.379Z,87.17
2019-03-02T07:45:49.673Z,87.44
2019-03-02T07:48:21.210Z,87.03
2019-03-02T07:50:49.798Z,87.09
2019-03-02T07:53:18.547Z,87.49
2019-03-02T07:55:47.421Z,87.68
2019-03-02T07:58:16.568Z,87.71
2019-03-02T08:00:49.126Z,86.64
2019-03-02T08:03:20.691Z,86.64
2019-03-02T08:05:52.578Z,87.25
2019-03-02T08:08:24.062Z,87.42
2019-03-02T08:10:52.671Z,86.68
2019-03-02T08:13:22.619Z,86.39
2019-03-02T08:15:51.250Z,85.72
2019-03-02T08:18:25.984Z,85.43
2019-03-02T08:20:57.311Z,85.24
2019-03-02T08:23:29.307Z,85.33
2019-03-02T08:26:00.566Z,84.94
2019-03-02T08:28:32.172Z,85.38
2019-03-02T08:31:05.506Z,85.70
2019-03-02T08:33:45.896Z,84.95
2019-03-02T08:36:13.039Z,84.55
2019-03-02T08:38:42.995Z,85.67
2019-03-02T08:41:11.573Z,85.67
2019-03-02T08:43:43.160Z,84.87
2019-03-02T08:46:14.548Z,85.30
2019-03-02T08:48:45.771Z,84.31
2019-03-02T08:51:18.779Z,84.27
2019-03-02T08:53:48.595Z,84.93
2019-03-02T08:56:17.295Z,84.92
2019-03-02T08:58:46.171Z,84.95
2019-03-02T09:01:18.641Z,84.56
2019-03-02T09:03:50.994Z,84.46
2019-03-02T09:06:19.808Z,83.94
2019-03-02T09:08:51.349Z,83.60
2019-03-02T09:11:22.990Z,82.55
2019-03-02T09:13:54.267Z,82.70
2019-03-02T09:16:25.752Z,82.85
2019-03-02T09:18:57.222Z,82.26
2019-03-02T09:21:25.844Z,81.60
2019-03-02T09:23:57.116Z,80.12
2019-03-02T09:26:28.676Z,80.12
2019-03-02T09:29:00.229Z,79.44
2019-03-02T09:31:35.071Z,79.13
2019-03-02T09:34:04.133Z,79.13
2019-03-02T09:36:32.505Z,78.65
2019-03-02T09:39:04.971Z,77.41
2019-03-02T09:41:33.904Z,76.10
2019-03-02T09:44:02.554Z,76.10
2019-03-02T09:46:33.861Z,75.67
2019-03-02T09:49:07.322Z,77.18
2019-03-02T09:51:38.680Z,74.79
2019-03-02T09:54:10.366Z,73.62
2019-03-02T09:56:40.522Z,74.55
2019-03-02T09:59:14.882Z,74.55
2019-03-02T10:01:48.118Z,73.71
2019-03-02T10:04:19.779Z,72.95
2019-03-02T10:06:50.384Z,74.01
2019-03-02T10:09:21.932Z,73.99
2019-03-02T10:11:51.670Z,72.92
2019-03-02T10:14:26.326Z,72.92
2019-03-02T10:16:54.874Z,73.93
2019-03-02T10:19:28.901Z,73.93
2019-03-02T10:21:56.883Z,73.83
2019-03-02T10:24:28.363Z,74.33
2019-03-02T10:26:59.917Z,74.18
2019-03-02T10:29:32.440Z,74.18
2019-03-02T10:32:01.154Z,74.34
2019-03-02T10:34:34.632Z,75.64
2019-03-02T10:37:08.738Z,75.29
2019-03-02T10:39:39.284Z,75.70
2019-03-02T10:42:10.933Z,75.05
2019-03-02T10:44:42.208Z,75.05
2019-03-02T10:47:10.874Z,74.25
2019-03-02T10:49:44.671Z,74.25
2019-03-02T10:52:15.506Z,74.15
2019-03-02T10:54:44.112Z,73.24
2019-03-02T10:57:16.543Z,73.24
2019-03-02T10:59:47.907Z,73.77
2019-03-02T11:02:20.126Z,73.45
2019-03-02T11:04:58.822Z,72.19
2019-03-02T11:07:32.192Z,72.19
2019-03-02T11:10:09.246Z,72.24
2019-03-02T11:12:56.021Z,70.52
2019-03-02T11:15:31.705Z,69.83
2019-03-02T11:18:04.650Z,69.83
2019-03-02T11:20:38.144Z,68.77
2019-03-02T11:23:09.120Z,68.77
2019-03-02T11:25:54.370Z,70.08
2019-03-02T11:28:28.045Z,67.65
2019-03-02T11:31:18.992Z,67.54
2019-03-02T11:34:00.710Z,68.18
2019-03-02T11:36:33.778Z,68.18
2019-03-02T11:39:22.911Z,66.92
2019-03-02T11:41:55.888Z,66.92
2019-03-02T11:44:31.565Z,67.02
2019-03-02T11:47:04.426Z,64.78
2019-03-02T11:49:54.413Z,64.78
2019-03-02T11:52:39.735Z,64.08
2019-03-02T11:55:11.403Z,63.02
2019-03-02T11:57:44.513Z,62.14
2019-03-02T12:00:21.256Z,62.14
2019-03-02T12:02:53.000Z,61.70
2019-03-02T12:05:29.484Z,62.80
2019-03-02T12:08:17.976Z,61.54
2019-03-02T12:10:57.969Z,62.05
2019-03-02T12:13:33.785Z,62.53
2019-03-02T12:16:05.856Z,60.56
2019-03-02T12:18:38.982Z,59.31
2019-03-02T12:21:18.006Z,59.19
2019-03-02T12:23:47.384Z,59.27
2019-03-02T12:26:23.980Z,59.85
2019-03-02T12:29:02.906Z,58.37
2019-03-02T12:31:36.249Z,56.71
2019-03-02T12:34:11.943Z,56.39
2019-03-02T12:36:49.238Z,57.21
2019-03-02T12:39:29.715Z,57.01
2019-03-02T12:42:03.002Z,57.62
2019-03-02T12:44:38.900Z,55.57
2019-03-02T12:47:29.959Z,57.09
2019-03-02T12:50:03.258Z,57.88
2019-03-02T12:52:52.713Z,57.85
2019-03-02T12:55:23.722Z,58.31
2019-03-02T12:57:59.401Z,59.04
2019-03-02T13:00:44.806Z,58.86
2019-03-02T13:03:34.647Z,57.98
2019-03-02T13:06:04.915Z,58.46
2019-03-02T13:08:50.156Z,59.24
2019-03-02T13:11:25.750Z,62.88
2019-03-02T13:14:14.750Z,58.87
2019-03-02T13:17:03.635Z,58.71
2019-03-02T13:22:31.108Z,58.44
2019-03-02T13:25:20.432Z,57.96
2019-03-02T13:27:56.869Z,59.30
2019-03-02T13:30:36.975Z,58.28
2019-03-02T13:33:30.148Z,58.45
2019-03-02T13:36:07.938Z,57.85
2019-03-02T13:38:42.846Z,58.59
2019-03-02T13:41:18.832Z,57.50
2019-03-02T13:43:51.470Z,57.53
2019-03-02T13:46:24.464Z,60.54
2019-03-02T13:49:05.859Z,58.62
2019-03-02T13:51:38.821Z,59.49
2019-03-02T13:54:11.844Z,57.30
2019-03-02T13:56:50.603Z,57.09
2019-03-02T13:59:27.262Z,57.32
2019-03-02T14:02:04.116Z,56.15
2019-03-02T14:04:53.857Z,56.33
2019-03-02T14:07:31.094Z,57.32
2019-03-02T14:10:04.583Z,58.24
2019-03-02T14:12:55.163Z,58.73
2019-03-02T14:15:25.578Z,58.73
2019-03-02T14:18:15.080Z,58.25
2019-03-02T14:20:48.158Z,57.35
2019-03-02T14:23:31.975Z,56.88
2019-03-02T14:26:08.573Z,58.18
2019-03-02T14:28:48.067Z,57.73
2019-03-02T14:31:27.246Z,58.18
2019-03-02T14:34:09.159Z,58.24
2019-03-02T14:36:42.387Z,57.77
2019-03-02T14:39:16.013Z,57.48
2019-03-02T14:41:51.705Z,57.48
2019-03-02T14:44:33.457Z,57.67
2019-03-02T14:47:09.524Z,58.34
2019-03-02T14:49:43.237Z,57.75
2019-03-02T14:52:32.884Z,58.24
2019-03-02T14:55:01.513Z,57.24
2019-03-02T14:57:31.993Z,59.64
2019-03-02T15:00:05.132Z,58.92
2019-03-02T15:05:26.035Z,58.60
2019-03-02T15:08:01.713Z,59.86
2019-03-02T15:10:37.868Z,59.64
2019-03-02T15:13:26.039Z,60.18
2019-03-02T15:16:15.387Z,60.18
2019-03-02T15:19:06.529Z,59.35
2019-03-02T15:21:44.410Z,59.15
2019-03-02T15:24:20.931Z,59.49
2019-03-02T15:27:08.959Z,59.49
2019-03-02T15:29:46.393Z,60.36
2019-03-02T15:32:25.728Z,60.71
2019-03-02T15:34:59.024Z,60.71
2019-03-02T15:37:38.270Z,63.61
2019-03-02T15:40:28.783Z,63.01
2019-03-02T15:43:08.081Z,61.60
2019-03-02T15:45:55.441Z,61.01
2019-03-02T15:48:27.185Z,61.10
2019-03-02T15:51:11.201Z,60.53
2019-03-02T15:53:59.168Z,60.22
2019-03-02T15:56:45.301Z,62.39
2019-03-02T15:59:37.340Z,61.37
2019-03-02T16:02:10.966Z,62.86
2019-03-02T16:04:52.673Z,64.15
2019-03-02T16:07:22.947Z,63.06
2019-03-02T16:09:53.221Z,62.99
2019-03-02T16:12:29.225Z,62.27
2019-03-02T16:15:05.083Z,63.90
2019-03-02T16:17:53.064Z,63.90
2019-03-02T16:20:35.345Z,64.35
2019-03-02T16:23:09.661Z,66.06
2019-03-02T16:26:02.676Z,66.55
2019-03-02T16:28:54.047Z,66.55
2019-03-02T16:31:41.267Z,68.30
2019-03-02T16:34:16.430Z,68.79
2019-03-02T16:36:49.523Z,69.65
2019-03-02T16:39:39.201Z,69.65
2019-03-02T16:42:12.021Z,70.06
2019-03-02T16:45:01.149Z,70.06
2019-03-02T16:47:34.352Z,70.26
2019-03-02T16:50:16.941Z,70.26
2019-03-02T16:52:50.811Z,71.13
2019-03-02T16:55:21.170Z,70.03
2019-03-02T16:57:56.936Z,71.56
2019-03-02T17:00:30.561Z,72.47
2019-03-02T17:06:01.292Z,73.34
2019-03-02T17:08:40.099Z,73.24
2019-03-02T17:11:16.109Z,74.11
2019-03-02T17:14:01.055Z,73.37
2019-03-02T17:16:49.543Z,74.44
2019-03-02T17:19:28.373Z,74.44
2019-03-02T17:21:59.846Z,75.56
2019-03-02T17:24:38.709Z,74.52
2019-03-02T17:27:11.947Z,74.52
2019-03-02T17:29:54.262Z,74.71
2019-03-02T17:32:41.116Z,75.18
2019-03-02T17:35:32.723Z,75.18
2019-03-02T17:38:17.383Z,75.06
2019-03-02T17:40:53.757Z,75.59
2019-03-02T17:43:24.044Z,76.05
2019-03-02T17:45:54.341Z,76.10
2019-03-02T17:48:38.043Z,75.96
2019-03-02T17:51:15.220Z,76.19
2019-03-02T17:53:51.158Z,77.45
2019-03-02T17:56:26.843Z,77.45
2019-03-02T17:59:04.167Z,77.30
2019-03-02T18:01:34.621Z,77.40
2019-03-02T18:04:21.199Z,77.74
2019-03-02T18:06:52.296Z,77.41
2019-03-02T18:09:25.240Z,77.47
2019-03-02T18:12:03.922Z,77.47
2019-03-02T18:14:34.853Z,77.64
2019-03-02T18:17:05.576Z,77.79
2019-03-02T18:19:34.269Z,77.84
2019-03-02T18:22:06.369Z,77.63
2019-03-02T18:24:35.446Z,78.00
2019-03-02T18:27:03.810Z,78.10
2019-03-02T18:29:32.429Z,78.55
2019-03-02T18:32:02.281Z,78.54
2019-03-02T18:34:31.181Z,78.29
2019-03-02T18:36:59.711Z,77.73
2019-03-02T18:39:28.559Z,78.81
2019-03-02T18:41:58.133Z,78.39
2019-03-02T18:44:27.890Z,78.39
2019-03-02T18:46:59.754Z,78.47
2019-03-02T18:49:30.453Z,78.92
2019-03-02T18:52:03.877Z,78.43
2019-03-02T18:54:32.486Z,79.50
2019-03-02T18:57:01.197Z,79.48
2019-03-02T18:59:32.978Z,79.98
2019-03-02T19:02:05.012Z,79.53
2019-03-02T19:04:33.597Z,79.09
2019-03-02T19:07:03.315Z,79.48
2019-03-02T19:09:33.436Z,79.48
2019-03-02T19:12:02.060Z,79.28
2019-03-02T19:14:30.692Z,79.69
2019-03-02T19:16:59.451Z,79.77
2019-03-02T19:19:28.089Z,80.60
2019-03-02T19:21:56.802Z,80.71
2019-03-02T19:24:25.445Z,81.00
2019-03-02T19:26:54.033Z,81.36
2019-03-02T19:29:22.661Z,82.15
2019-03-02T19:31:51.275Z,82.76
2019-03-02T19:34:19.895Z,82.66
2019-03-02T19:36:51.586Z,83.86
2019-03-02T19:39:22.633Z,83.86
2019-03-02T19:41:51.361Z,84.38
2019-03-02T19:44:22.971Z,84.92
2019-03-02T19:46:51.572Z,85.09
2019-03-02T19:49:20.294Z,85.31
2019-03-02T19:51:49.710Z,85.02
2019-03-02T19:54:18.347Z,85.51
2019-03-02T19:56:46.955Z,85.53
2019-03-02T19:59:15.581Z,85.65
2019-03-02T20:01:50.235Z,85.75
2019-03-02T20:04:18.959Z,85.98
2019-03-02T20:06:47.571Z,86.64
2019-03-02T20:09:16.280Z,86.95
2019-03-02T20:11:44.891Z,87.00
2019-03-02T20:14:16.571Z,87.01
2019-03-02T20:16:45.287Z,87.12
2019-03-02T20:19:16.966Z,87.47
2019-03-02T20:21:45.783Z,87.54
2019-03-02T20:24:14.396Z,88.27
2019-03-02T20:26:43.158Z,88.29
2019-03-02T20:29:11.818Z,88.94
2019-03-02T20:31:40.445Z,88.94
2019-03-02T20:34:12.027Z,89.01
2019-03-02T20:36:43.658Z,89.01
2019-03-02T20:39:12.242Z,89.10
2019-03-02T20:41:40.853Z,89.21
2019-03-02T20:44:09.487Z,89.66
2019-03-02T20:46:40.479Z,89.87
2019-03-02T20:49:15.142Z,89.96
2019-03-02T20:51:46.838Z,90.20
2019-03-02T20:54:15.553Z,90.12
2019-03-02T20:56:45.807Z,90.46
2019-03-02T20:59:17.379Z,90.42
2019-03-02T21:01:46.002Z,90.69
2019-03-02T21:04:14.601Z,91.21
2019-03-02T21:06:43.311Z,91.34
2019-03-02T21:09:11.891Z,91.80
2019-03-02T21:11:40.533Z,92.53
2019-03-02T21:14:15.306Z,92.65
2019-03-02T21:16:44.028Z,92.48
2019-03-02T21:19:16.019Z,92.51
2019-03-02T21:21:44.730Z,92.94
2019-03-02T21:24:13.352Z,92.90
2019-03-02T21:26:41.971Z,93.11
2019-03-02T21:29:10.578Z,93.19
2019-03-02T21:31:41.963Z,93.30
2019-03-02T21:34:13.647Z,93.22
2019-03-02T21:36:42.664Z,93.03
2019-03-02T21:39:11.485Z,92.75
2019-03-02T21:41:40.395Z,92.34
2019-03-02T21:44:11.881Z,92.25
2019-03-02T21:46:40.480Z,92.51
2019-03-02T21:49:13.611Z,92.66
2019-03-02T21:51:42.584Z,92.73
2019-03-02T21:54:14.318Z,92.73
2019-03-02T21:56:42.918Z,92.97
2019-03-02T21:59:14.396Z,93.32
2019-03-02T22:01:43.016Z,93.53
2019-03-02T22:04:14.602Z,93.38
2019-03-02T22:06:46.194Z,93.42
2019-03-02T22:09:17.783Z,93.06
2019-03-02T22:11:49.769Z,92.72
2019-03-02T22:14:18.357Z,92.28
2019-03-02T22:16:46.982Z,91.98
2019-03-02T22:19:15.599Z,91.91
2019-03-02T22:21:44.229Z,91.81
2019-03-02T22:24:12.943Z,91.57
2019-03-02T22:26:44.828Z,91.44
2019-03-02T22:29:16.815Z,91.57
2019-03-02T22:31:45.428Z,91.76
2019-03-02T22:34:16.715Z,91.29
2019-03-02T22:36:48.509Z,91.30
2019-03-02T22:39:20.082Z,91.27
2019-03-02T22:41:51.575Z,90.77
2019-03-02T22:44:20.213Z,90.61
2019-03-02T22:46:48.832Z,90.72
2019-03-02T22:49:20.537Z,90.49
2019-03-02T22:51:49.154Z,90.41
2019-03-02T22:54:20.832Z,90.30
2019-03-02T22:56:49.542Z,90.50
2019-03-02T22:59:21.739Z,90.44
2019-03-02T23:02:02.253Z,90.32
2019-03-02T23:04:34.012Z,90.12
2019-03-02T23:07:05.592Z,89.92
2019-03-02T23:09:37.199Z,90.20
2019-03-02T23:12:05.814Z,90.37
2019-03-02T23:14:34.776Z,91.12
2019-03-02T23:17:08.114Z,91.71
2019-03-02T23:19:36.443Z,92.46
2019-03-02T23:22:08.407Z,93.36
2019-03-02T23:24:38.860Z,94.05
2019-03-02T23:27:10.644Z,94.45
2019-03-02T23:29:42.643Z,94.91
2019-03-02T23:32:11.217Z,95.17
2019-03-02T23:34:42.528Z,95.51
2019-03-02T23:37:11.138Z,95.50
2019-03-02T23:39:42.613Z,95.25
2019-03-02T23:42:13.989Z,95.04
2019-03-02T23:44:45.363Z,94.83
2019-03-02T23:47:16.943Z,94.58
2019-03-02T23:49:48.518Z,94.46
2019-03-02T23:52:17.130Z,94.06
2019-03-02T23:54:45.682Z,93.84
2019-03-02T23:57:15.076Z,93.84
2019-03-02T23:59:44.098Z,93.89
